Time;durP1;ratioP1;P1;durP2;ratioP2;P2;SDS_P1;SDS_P2;PMS_P1;PMS_P2;Temp;Humidity;BMP_temperature;BMP_pressure;BME280_temperature;BME280_humidity;BME280_pressure;Samples;Min_cycle;Max_cycle;Signal;HPM_P1;HPM_P2
2023/12/16 00:03:33;;;;;;;;;;;16.90;67.80;;;;;;10270857;28;90585;-52
2023/12/16 00:08:35;;;;;;;;;;;16.90;67.80;;;;;;10268990;28;88991;-50
2023/12/16 00:13:37;;;;;;;;;;;16.80;67.70;;;;;;10264402;28;88375;-57
2023/12/16 00:18:38;;;;;;;;;;;16.80;67.60;;;;;;10281178;28;90029;-52
2023/12/16 00:23:40;;;;;;;;;;;16.80;67.50;;;;;;10274550;28;89342;-53
2023/12/16 00:28:42;;;;;;;;;;;16.80;67.50;;;;;;10252451;28;90458;-52
2023/12/16 00:33:43;;;;;;;;;;;16.80;67.40;;;;;;10271552;28;89091;-53
2023/12/16 00:38:45;;;;;;;;;;;16.80;67.40;;;;;;10274078;28;90803;-53
2023/12/16 00:43:47;;;;;;;;;;;16.70;67.30;;;;;;10283329;28;90466;-53
2023/12/16 00:48:49;;;;;;;;;;;16.70;67.30;;;;;;10289349;28;92345;-56
2023/12/16 00:53:50;;;;;;;;;;;16.70;67.30;;;;;;10277284;28;90014;-49
2023/12/16 00:58:54;;;;;;;;;;;16.70;67.30;;;;;;10284038;28;89988;-48
2023/12/16 01:03:56;;;;;;;;;;;16.70;67.30;;;;;;10272205;28;90370;-53
2023/12/16 01:08:57;;;;;;;;;;;16.70;67.20;;;;;;10271187;28;89902;-53
2023/12/16 01:13:59;;;;;;;;;;;16.70;67.10;;;;;;10278490;28;89214;-50
2023/12/16 01:19:01;;;;;;;;;;;16.60;66.90;;;;;;10278163;28;89928;-49
2023/12/16 01:24:03;;;;;;;;;;;16.70;67.00;;;;;;10281624;28;88384;-53
2023/12/16 01:29:04;;;;;;;;;;;16.60;66.90;;;;;;10276264;28;91624;-49
2023/12/16 01:34:06;;;;;;;;;;;16.60;66.80;;;;;;10273283;28;89112;-51
2023/12/16 01:39:08;;;;;;;;;;;16.60;66.90;;;;;;10271014;28;89809;-49
2023/12/16 01:44:10;;;;;;;;;;;16.60;66.80;;;;;;10287604;28;89553;-52
2023/12/16 01:49:12;;;;;;;;;;;16.60;66.80;;;;;;10269604;28;90010;-49
2023/12/16 01:54:15;;;;;;;;;;;16.50;66.70;;;;;;10269491;28;89990;-52
2023/12/16 01:59:17;;;;;;;;;;;16.50;66.70;;;;;;10270458;28;90435;-52
2023/12/16 02:04:19;;;;;;;;;;;16.50;66.70;;;;;;10762288;22;89153;-54
2023/12/16 02:09:21;;;;;;;;;;;16.50;66.70;;;;;;10322732;28;90074;-47
2023/12/16 02:14:23;;;;;;;;;;;16.50;66.70;;;;;;10312959;28;88983;-50
2023/12/16 02:19:25;;;;;;;;;;;16.50;66.70;;;;;;10318557;28;89798;-52
2023/12/16 02:24:29;;;;;;;;;;;16.40;66.60;;;;;;10312942;28;89865;-50
2023/12/16 02:29:30;;;;;;;;;;;16.40;66.60;;;;;;10348009;28;89058;-51
2023/12/16 02:34:32;;;;;;;;;;;16.40;66.60;;;;;;10319263;28;88926;-49
2023/12/16 02:39:34;;;;;;;;;;;16.40;66.60;;;;;;10315242;28;89011;-51
2023/12/16 02:44:36;;;;;;;;;;;16.40;66.50;;;;;;10317388;28;89996;-50
2023/12/16 02:49:37;;;;;;;;;;;16.40;66.50;;;;;;10314522;28;90371;-52
2023/12/16 02:54:39;;;;;;;;;;;16.30;66.50;;;;;;10311411;28;89309;-47
2023/12/16 02:59:41;;;;;;;;;;;16.30;66.40;;;;;;10311450;28;89199;-50
2023/12/16 03:04:43;;;;;;;;;;;16.40;66.40;;;;;;10295760;28;90129;-52
2023/12/16 03:09:45;;;;;;;;;;;16.30;66.30;;;;;;10313600;28;90311;-49
2023/12/16 03:14:47;;;;;;;;;;;16.30;66.30;;;;;;10319551;28;88871;-49
2023/12/16 03:19:49;;;;;;;;;;;16.30;66.40;;;;;;10319867;28;89871;-51
2023/12/16 03:24:51;;;;;;;;;;;16.30;66.30;;;;;;10309554;28;89692;-51
2023/12/16 03:29:53;;;;;;;;;;;16.30;66.30;;;;;;10321501;28;89902;-52
2023/12/16 03:34:54;;;;;;;;;;;16.30;66.30;;;;;;10315948;28;89822;-52
2023/12/16 03:39:56;;;;;;;;;;;16.30;66.30;;;;;;10326144;28;89511;-52
2023/12/16 03:44:58;;;;;;;;;;;16.30;66.30;;;;;;10306715;28;89610;-52
2023/12/16 03:50:00;;;;;;;;;;;16.20;66.10;;;;;;10308572;28;88963;-49
2023/12/16 03:55:02;;;;;;;;;;;16.30;66.20;;;;;;10304909;28;89732;-48
2023/12/16 04:00:04;;;;;;;;;;;16.20;66.10;;;;;;10314450;28;90941;-51
2023/12/16 04:05:06;;;;;;;;;;;16.20;66.10;;;;;;10322273;28;88714;-52
2023/12/16 04:10:10;;;;;;;;;;;16.20;66.10;;;;;;10315154;28;89091;-50
2023/12/16 04:15:12;;;;;;;;;;;16.20;66.00;;;;;;10320437;28;88631;-49
2023/12/16 04:20:14;;;;;;;;;;;16.20;66.00;;;;;;10307337;28;90008;-52
2023/12/16 04:25:16;;;;;;;;;;;16.20;66.00;;;;;;10320826;28;88686;-46
2023/12/16 04:30:18;;;;;;;;;;;16.20;65.90;;;;;;10311582;28;90008;-49
2023/12/16 04:35:20;;;;;;;;;;;16.20;65.80;;;;;;10320793;28;89227;-48
2023/12/16 04:40:21;;;;;;;;;;;16.20;65.80;;;;;;10310548;28;88520;-50
2023/12/16 04:45:23;;;;;;;;;;;16.20;65.70;;;;;;10306489;28;90431;-49
2023/12/16 04:50:25;;;;;;;;;;;16.20;65.70;;;;;;10309106;28;89830;-48
2023/12/16 04:55:26;;;;;;;;;;;16.20;65.60;;;;;;10303822;28;89036;-49
2023/12/16 05:00:28;;;;;;;;;;;16.20;65.60;;;;;;10323747;28;89204;-49
2023/12/16 05:05:30;;;;;;;;;;;16.20;65.50;;;;;;10308214;28;88992;-48
2023/12/16 05:10:31;;;;;;;;;;;16.20;65.60;;;;;;10324110;28;90169;-51
2023/12/16 05:15:33;;;;;;;;;;;16.10;65.50;;;;;;10312826;28;90235;-48
2023/12/16 05:20:35;;;;;;;;;;;16.20;65.50;;;;;;10327891;28;90050;-50
2023/12/16 05:25:39;;;;;;;;;;;16.10;65.40;;;;;;10309010;28;89280;-48
2023/12/16 05:30:41;;;;;;;;;;;16.10;65.40;;;;;;10316995;28;90009;-48
2023/12/16 05:35:43;;;;;;;;;;;16.20;65.60;;;;;;10327495;28;90105;-47
2023/12/16 05:40:45;;;;;;;;;;;16.20;65.60;;;;;;10329812;28;91704;-51
2023/12/16 05:45:47;;;;;;;;;;;16.30;65.60;;;;;;10327915;28;89655;-66
2023/12/16 05:50:49;;;;;;;;;;;16.40;65.50;;;;;;10319422;28;89070;-47
2023/12/16 05:55:50;;;;;;;;;;;16.50;65.20;;;;;;10322729;28;89583;-52
2023/12/16 06:00:52;;;;;;;;;;;16.60;65.00;;;;;;10316679;28;89527;-53
2023/12/16 06:05:54;;;;;;;;;;;16.70;64.90;;;;;;10313382;28;89284;-48
2023/12/16 06:10:56;;;;;;;;;;;16.70;64.70;;;;;;10320470;28;90097;-49
2023/12/16 06:15:59;;;;;;;;;;;16.70;64.70;;;;;;10319675;28;88880;-51
2023/12/16 06:21:17;;;;;;;;;;;16.70;65.20;;;;;;10307452;28;89628;-56
2023/12/16 06:26:18;;;;;;;;;;;16.70;64.70;;;;;;10328867;28;89030;-48
2023/12/16 06:31:20;;;;;;;;;;;16.60;64.70;;;;;;10331071;28;90802;-49
2023/12/16 06:36:23;;;;;;;;;;;16.60;64.80;;;;;;10311842;28;91946;-52
2023/12/16 06:41:24;;;;;;;;;;;16.60;64.90;;;;;;10329047;28;89026;-49
2023/12/16 06:46:26;;;;;;;;;;;16.60;65.10;;;;;;10309194;28;88414;-49
2023/12/16 06:51:28;;;;;;;;;;;16.60;65.20;;;;;;10310277;28;90280;-51
2023/12/16 06:56:29;;;;;;;;;;;16.70;65.10;;;;;;10329229;28;89475;-48
2023/12/16 07:01:31;;;;;;;;;;;16.70;65.00;;;;;;10318363;28;90057;-50
2023/12/16 07:06:34;;;;;;;;;;;16.70;65.00;;;;;;10329171;28;88633;-47
2023/12/16 07:11:36;;;;;;;;;;;16.70;65.00;;;;;;10329554;28;91184;-49
2023/12/16 07:16:38;;;;;;;;;;;16.70;65.20;;;;;;10314936;28;90021;-50
2023/12/16 07:21:43;;;;;;;;;;;16.70;65.40;;;;;;10315321;28;88900;-48
2023/12/16 07:26:44;;;;;;;;;;;16.70;65.60;;;;;;10329207;28;89975;-47
2023/12/16 07:31:47;;;;;;;;;;;16.70;65.50;;;;;;10312594;28;90075;-54
2023/12/16 07:36:48;;;;;;;;;;;16.80;65.50;;;;;;10330296;28;89954;-52
2023/12/16 07:41:50;;;;;;;;;;;16.80;65.50;;;;;;10303440;28;90053;-49
2023/12/16 07:46:52;;;;;;;;;;;16.80;65.50;;;;;;10328118;28;89102;-52
2023/12/16 07:51:54;;;;;;;;;;;16.80;65.50;;;;;;10329965;28;90032;-51
2023/12/16 07:56:56;;;;;;;;;;;16.90;65.70;;;;;;10317451;28;89272;-52
2023/12/16 08:02:05;;;;;;;;;;;17.10;65.60;;;;;;10321334;28;109487;-49
2023/12/16 08:07:07;;;;;;;;;;;17.30;65.40;;;;;;10318140;28;90456;-48
2023/12/16 08:12:09;;;;;;;;;;;17.50;65.00;;;;;;10308141;28;90860;-48
2023/12/16 08:17:10;;;;;;;;;;;17.60;64.80;;;;;;10313190;28;90198;-50
2023/12/16 08:22:12;;;;;;;;;;;17.70;64.60;;;;;;10313683;28;89347;-50
2023/12/16 08:27:14;;;;;;;;;;;17.70;64.60;;;;;;10327502;28;89903;-49
2023/12/16 08:32:16;;;;;;;;;;;17.70;64.70;;;;;;10304295;28;88945;-50
2023/12/16 08:37:18;;;;;;;;;;;17.70;64.80;;;;;;10324697;28;89993;-50
2023/12/16 08:42:20;;;;;;;;;;;17.70;64.70;;;;;;10307913;28;89983;-50
2023/12/16 08:47:22;;;;;;;;;;;17.80;64.70;;;;;;10301273;28;88733;-51
2023/12/16 08:52:23;;;;;;;;;;;17.70;64.70;;;;;;10317905;28;89108;-47
2023/12/16 08:57:25;;;;;;;;;;;17.70;64.80;;;;;;10330400;28;90082;-48
2023/12/16 09:02:27;;;;;;;;;;;17.70;64.90;;;;;;10327057;28;89979;-49
2023/12/16 09:07:28;;;;;;;;;;;17.80;64.90;;;;;;10330309;28;91565;-52
2023/12/16 09:12:30;;;;;;;;;;;17.70;64.80;;;;;;10321195;28;89135;-52
2023/12/16 09:17:32;;;;;;;;;;;17.70;64.80;;;;;;10323009;28;90059;-51
2023/12/16 09:22:34;;;;;;;;;;;17.70;64.80;;;;;;10328241;28;91960;-51
2023/12/16 09:27:35;;;;;;;;;;;17.70;65.40;;;;;;10307846;28;90017;-51
2023/12/16 09:32:41;;;;;;;;;;;17.80;67.10;;;;;;10330780;28;90529;-52
2023/12/16 09:37:43;;;;;;;;;;;17.90;66.70;;;;;;10316898;28;89290;-51
2023/12/16 10:48:48;;;;;;;;;;;17.80;65.80;;;;;;10356668;27;89466;-51
2023/12/16 10:53:56;;;;;;;;;;;17.80;65.50;;;;;;10357578;28;90450;-47
2023/12/16 10:59:03;;;;;;;;;;;17.80;65.60;;;;;;10361065;28;89349;-49
2023/12/16 11:04:18;;;;;;;;;;;17.80;65.90;;;;;;10341953;28;90150;-52
2023/12/16 11:09:21;;;;;;;;;;;17.80;66.40;;;;;;10361568;28;89171;-48
2023/12/16 11:14:23;;;;;;;;;;;17.90;66.70;;;;;;10365496;28;89093;-49
2023/12/16 11:19:30;;;;;;;;;;;17.90;67.10;;;;;;10360548;28;90148;-50
2023/12/16 11:24:39;;;;;;;;;;;17.90;66.80;;;;;;10345726;28;90775;-48
2023/12/16 11:29:42;;;;;;;;;;;17.90;66.90;;;;;;10360041;28;88359;-47
2023/12/16 11:34:49;;;;;;;;;;;17.90;67.10;;;;;;10358861;28;89043;-52
2023/12/16 11:39:51;;;;;;;;;;;17.80;67.10;;;;;;10355242;28;90067;-47
2023/12/16 11:44:53;;;;;;;;;;;17.90;67.20;;;;;;10357590;28;90932;-49
2023/12/16 11:49:56;;;;;;;;;;;17.90;67.10;;;;;;10358295;28;89108;-47
2023/12/16 11:54:59;;;;;;;;;;;17.90;67.00;;;;;;10349175;28;89110;-52
2023/12/16 12:00:01;;;;;;;;;;;17.80;66.90;;;;;;10350212;28;89467;-55
2023/12/16 12:05:03;;;;;;;;;;;17.70;66.80;;;;;;10343638;28;89317;-51
2023/12/16 12:10:05;;;;;;;;;;;17.70;66.70;;;;;;10342547;28;88754;-48
2023/12/16 12:15:07;;;;;;;;;;;17.70;66.70;;;;;;10362916;28;89122;-47
2023/12/16 12:20:11;;;;;;;;;;;17.60;66.70;;;;;;10353601;28;89036;-50
2023/12/16 12:25:17;;;;;;;;;;;17.60;66.80;;;;;;10364480;28;89035;-48
2023/12/16 12:30:19;;;;;;;;;;;17.50;66.90;;;;;;10359264;28;90297;-52
2023/12/16 12:35:21;;;;;;;;;;;17.40;66.90;;;;;;10355315;28;91093;-49
2023/12/16 12:40:24;;;;;;;;;;;17.40;67.10;;;;;;10365229;28;88246;-50
2023/12/16 12:45:30;;;;;;;;;;;17.40;67.20;;;;;;10364784;28;89021;-52
2023/12/16 12:50:32;;;;;;;;;;;17.30;67.20;;;;;;10357301;28;88596;-51
2023/12/16 12:55:33;;;;;;;;;;;17.30;67.30;;;;;;10376781;28;88688;-47
2023/12/16 13:00:35;;;;;;;;;;;17.20;67.30;;;;;;10353360;28;89469;-51
2023/12/16 13:05:38;;;;;;;;;;;17.20;67.40;;;;;;10363089;28;89962;-51
2023/12/16 13:10:40;;;;;;;;;;;17.10;67.30;;;;;;10358361;28;88466;-48
2023/12/16 13:15:41;;;;;;;;;;;17.10;67.30;;;;;;10377238;28;89027;-52
2023/12/16 13:20:58;;;;;;;;;;;17.10;67.30;;;;;;10352338;28;89403;-48
2023/12/16 13:26:00;;;;;;;;;;;17.00;67.50;;;;;;10336312;28;89978;-51
2023/12/16 13:31:02;;;;;;;;;;;17.00;68.00;;;;;;10352348;28;89519;-49
2023/12/16 13:36:09;;;;;;;;;;;17.00;67.50;;;;;;10374586;28;89529;-49
2023/12/16 13:41:31;;;;;;;;;;;17.00;67.50;;;;;;10356473;28;91387;-47
2023/12/16 13:46:33;;;;;;;;;;;16.90;67.50;;;;;;10362297;28;88747;-49
2023/12/16 13:51:34;;;;;;;;;;;16.90;67.40;;;;;;10339394;28;89834;-48
2023/12/16 13:56:36;;;;;;;;;;;16.80;67.40;;;;;;10351045;28;88676;-61
2023/12/16 14:01:38;;;;;;;;;;;16.80;67.40;;;;;;10357122;28;88378;-51
2023/12/16 14:06:40;;;;;;;;;;;16.80;67.40;;;;;;10348119;28;89309;-52
2023/12/16 14:11:42;;;;;;;;;;;16.70;67.30;;;;;;10359412;28;89794;-51
2023/12/16 14:16:44;;;;;;;;;;;16.70;67.30;;;;;;10345397;28;88973;-46
2023/12/16 14:21:46;;;;;;;;;;;16.70;67.30;;;;;;10364198;28;92239;-47
2023/12/16 14:26:47;;;;;;;;;;;16.60;67.30;;;;;;10367092;28;89093;-48
2023/12/16 14:31:49;;;;;;;;;;;16.60;67.30;;;;;;10372157;28;88965;-47
2023/12/16 14:36:51;;;;;;;;;;;16.60;67.30;;;;;;10365873;28;89091;-49
2023/12/16 14:41:53;;;;;;;;;;;16.60;67.30;;;;;;10351041;28;89012;-49
2023/12/16 14:46:54;;;;;;;;;;;16.50;67.20;;;;;;10372304;28;89555;-49
2023/12/16 14:51:56;;;;;;;;;;;16.50;67.30;;;;;;10332423;28;89335;-47
2023/12/16 14:56:58;;;;;;;;;;;16.50;67.30;;;;;;10347761;28;89507;-50
2023/12/16 15:02:00;;;;;;;;;;;16.50;67.30;;;;;;10368520;28;90286;-50
2023/12/16 15:07:03;;;;;;;;;;;16.50;67.20;;;;;;10349643;28;89960;-49
2023/12/16 15:12:06;;;;;;;;;;;16.50;67.20;;;;;;10351451;28;89387;-51
2023/12/16 15:17:08;;;;;;;;;;;16.50;67.20;;;;;;10355145;28;88368;-48
2023/12/16 15:22:10;;;;;;;;;;;16.40;67.20;;;;;;10343511;28;88998;-47
2023/12/16 15:27:11;;;;;;;;;;;16.40;67.20;;;;;;10370528;28;89049;-50
2023/12/16 15:32:14;;;;;;;;;;;16.40;67.20;;;;;;10348889;28;89296;-48
2023/12/16 15:37:16;;;;;;;;;;;16.40;67.20;;;;;;10370636;28;89679;-52
2023/12/16 15:42:19;;;;;;;;;;;16.40;67.20;;;;;;10362008;28;89018;-56
2023/12/16 15:47:22;;;;;;;;;;;16.40;67.20;;;;;;10359351;28;89016;-47
2023/12/16 15:52:28;;;;;;;;;;;16.40;67.20;;;;;;10365258;28;89875;-52
2023/12/16 15:57:30;;;;;;;;;;;16.40;67.20;;;;;;10349938;28;90746;-49
2023/12/16 16:02:32;;;;;;;;;;;16.40;67.30;;;;;;10336713;28;89143;-52
2023/12/16 16:07:35;;;;;;;;;;;16.40;67.20;;;;;;10366482;28;90060;-50
2023/12/16 16:12:37;;;;;;;;;;;16.40;67.20;;;;;;10364216;28;89447;-52
2023/12/16 16:17:38;;;;;;;;;;;16.40;67.20;;;;;;10353192;28;89065;-49
2023/12/16 16:22:41;;;;;;;;;;;16.60;67.10;;;;;;10366064;28;89329;-52
2023/12/16 16:27:42;;;;;;;;;;;16.70;66.80;;;;;;10369708;28;89214;-50
2023/12/16 16:32:45;;;;;;;;;;;17.00;66.30;;;;;;10359770;28;89377;-48
2023/12/16 16:37:47;;;;;;;;;;;17.20;65.80;;;;;;10345247;28;88246;-50
2023/12/16 16:42:48;;;;;;;;;;;17.40;65.50;;;;;;10351267;28;88795;-49
2023/12/16 16:47:50;;;;;;;;;;;17.50;65.10;;;;;;10337712;28;89762;-48
2023/12/16 16:52:52;;;;;;;;;;;17.60;64.80;;;;;;10359309;28;89007;-49
2023/12/16 16:57:56;;;;;;;;;;;17.70;64.50;;;;;;10357638;28;89832;-49
2023/12/16 17:02:58;;;;;;;;;;;17.80;64.30;;;;;;10367392;28;89538;-51
2023/12/16 17:08:01;;;;;;;;;;;17.80;64.20;;;;;;10339842;28;89001;-48
2023/12/16 17:13:04;;;;;;;;;;;17.80;64.10;;;;;;10339255;28;89323;-49
2023/12/16 17:18:07;;;;;;;;;;;17.80;64.00;;;;;;10363560;28;89037;-51
2023/12/16 17:23:09;;;;;;;;;;;17.80;64.10;;;;;;10379017;28;88112;-48
2023/12/16 17:28:11;;;;;;;;;;;17.80;64.10;;;;;;10358938;28;90185;-52
2023/12/16 17:33:12;;;;;;;;;;;17.90;64.00;;;;;;10375004;28;88682;-49
2023/12/16 17:38:15;;;;;;;;;;;17.80;63.90;;;;;;10350819;28;89845;-48
2023/12/16 17:43:17;;;;;;;;;;;17.80;64.00;;;;;;10331569;28;89775;-50
2023/12/16 17:48:19;;;;;;;;;;;17.90;64.10;;;;;;10363109;28;89954;-46
2023/12/16 17:53:22;;;;;;;;;;;17.90;64.00;;;;;;10377325;28;88809;-51
2023/12/16 17:58:24;;;;;;;;;;;18.00;63.90;;;;;;10368767;28;89100;-47
2023/12/16 18:03:26;;;;;;;;;;;18.00;63.60;;;;;;10352196;28;89213;-51
2023/12/16 18:08:27;;;;;;;;;;;18.10;63.60;;;;;;10352609;28;89496;-52
2023/12/16 18:13:29;;;;;;;;;;;18.10;63.60;;;;;;10369585;28;89442;-48
2023/12/16 18:18:31;;;;;;;;;;;18.10;63.60;;;;;;10356976;28;89214;-50
2023/12/16 18:23:33;;;;;;;;;;;18.20;63.40;;;;;;10361969;28;90001;-50
2023/12/16 18:28:35;;;;;;;;;;;18.20;63.30;;;;;;10356201;28;89523;-49
2023/12/16 18:33:37;;;;;;;;;;;18.20;63.20;;;;;;10358700;28;89012;-47
2023/12/16 18:38:42;;;;;;;;;;;18.20;63.30;;;;;;10354953;28;88927;-48
2023/12/16 18:43:44;;;;;;;;;;;18.20;63.40;;;;;;10368236;28;89095;-48
2023/12/16 18:48:47;;;;;;;;;;;18.30;63.40;;;;;;10344514;28;89098;-50
2023/12/16 18:53:49;;;;;;;;;;;18.30;63.20;;;;;;10359724;28;90733;-49
2023/12/16 18:58:51;;;;;;;;;;;18.30;63.10;;;;;;10358254;28;89008;-47
2023/12/16 19:03:53;;;;;;;;;;;18.30;63.00;;;;;;10368563;28;88816;-49
2023/12/16 19:08:55;;;;;;;;;;;18.30;63.10;;;;;;10371807;28;89711;-49
2023/12/16 19:13:57;;;;;;;;;;;18.30;63.20;;;;;;10373316;28;88240;-47
2023/12/16 19:18:59;;;;;;;;;;;18.30;63.10;;;;;;10333152;28;90529;-47
2023/12/16 19:24:01;;;;;;;;;;;18.30;63.10;;;;;;10342787;28;89290;-50
2023/12/16 19:29:02;;;;;;;;;;;18.30;63.10;;;;;;10363048;28;89828;-49
2023/12/16 19:34:04;;;;;;;;;;;18.20;63.20;;;;;;10353303;28;89765;-49
2023/12/16 19:39:06;;;;;;;;;;;18.30;63.30;;;;;;10372159;28;89011;-49
2023/12/16 19:44:08;;;;;;;;;;;18.20;63.10;;;;;;10348987;28;88973;-50
2023/12/16 19:49:10;;;;;;;;;;;18.20;63.00;;;;;;10359876;28;89006;-48
2023/12/16 19:54:12;;;;;;;;;;;18.20;63.10;;;;;;10363951;28;88298;-50
2023/12/16 19:59:14;;;;;;;;;;;18.20;63.00;;;;;;10363752;28;88754;-50
2023/12/16 20:04:16;;;;;;;;;;;18.20;63.00;;;;;;10354240;28;89145;-47
2023/12/16 20:09:18;;;;;;;;;;;18.20;63.50;;;;;;10359934;28;90536;-72
2023/12/16 20:14:20;;;;;;;;;;;18.30;63.10;;;;;;10369394;28;90178;-51
2023/12/16 20:19:21;;;;;;;;;;;18.30;63.00;;;;;;10342568;28;89050;-52
2023/12/16 20:24:25;;;;;;;;;;;18.30;62.90;;;;;;10360108;28;88583;-51
2023/12/16 20:29:26;;;;;;;;;;;18.20;63.00;;;;;;10345166;28;88754;-50
2023/12/16 20:34:28;;;;;;;;;;;18.30;63.00;;;;;;10357001;28;89238;-47
2023/12/16 20:44:50;;;;;;;;;;;18.30;62.90;;;;;;10368127;28;89382;-50
2023/12/16 20:49:53;;;;;;;;;;;18.30;62.90;;;;;;10358233;28;88445;-50
2023/12/16 20:54:54;;;;;;;;;;;18.20;62.80;;;;;;10371774;28;90568;-51
2023/12/16 20:59:56;;;;;;;;;;;18.20;63.00;;;;;;10363439;28;89771;-57
2023/12/16 21:04:58;;;;;;;;;;;18.10;63.20;;;;;;10350078;28;91058;-50
2023/12/16 21:10:00;;;;;;;;;;;18.00;63.30;;;;;;10349563;28;89342;-51
2023/12/16 21:15:02;;;;;;;;;;;17.90;63.60;;;;;;10355136;28;89604;-48
2023/12/16 21:20:07;;;;;;;;;;;17.90;63.70;;;;;;10362886;28;89471;-50
2023/12/16 21:25:09;;;;;;;;;;;17.90;64.00;;;;;;10356448;28;89564;-51
2023/12/16 21:30:11;;;;;;;;;;;17.80;64.10;;;;;;10345805;28;89230;-51
2023/12/16 21:35:12;;;;;;;;;;;17.70;64.10;;;;;;10369814;28;89434;-51
2023/12/16 21:40:14;;;;;;;;;;;17.70;64.40;;;;;;10353542;28;88959;-52
2023/12/16 21:45:16;;;;;;;;;;;17.60;64.40;;;;;;10358716;28;88195;-50
2023/12/16 21:50:18;;;;;;;;;;;17.50;64.50;;;;;;10372926;28;89746;-52
2023/12/16 21:55:19;;;;;;;;;;;17.50;64.60;;;;;;10360566;28;88990;-52
2023/12/16 22:00:22;;;;;;;;;;;17.40;64.80;;;;;;10371050;28;90125;-51
2023/12/16 22:05:24;;;;;;;;;;;17.40;64.80;;;;;;10372350;28;88975;-47
2023/12/16 22:10:25;;;;;;;;;;;17.30;64.90;;;;;;10370493;28;91470;-50
2023/12/16 22:15:30;;;;;;;;;;;17.30;65.00;;;;;;10356904;28;91365;-52
2023/12/16 22:20:32;;;;;;;;;;;17.30;65.10;;;;;;10355124;28;90174;-51
2023/12/16 22:25:33;;;;;;;;;;;17.20;65.10;;;;;;10364996;28;88235;-50
2023/12/16 22:30:35;;;;;;;;;;;17.20;65.20;;;;;;10345906;28;90133;-47
2023/12/16 22:35:37;;;;;;;;;;;17.20;65.20;;;;;;10366203;28;88896;-50
2023/12/16 22:40:39;;;;;;;;;;;17.10;65.00;;;;;;10345028;28;90105;-47
2023/12/16 22:45:40;;;;;;;;;;;17.10;64.70;;;;;;10356047;28;89370;-50
2023/12/16 22:50:42;;;;;;;;;;;17.10;64.60;;;;;;10349960;28;89541;-47
2023/12/16 22:55:45;;;;;;;;;;;17.10;64.20;;;;;;10360311;28;89164;-48
2023/12/16 23:00:47;;;;;;;;;;;17.10;63.80;;;;;;10356117;28;89046;-49
2023/12/16 23:05:49;;;;;;;;;;;17.00;63.50;;;;;;10362725;28;89017;-49
2023/12/16 23:10:50;;;;;;;;;;;17.10;63.40;;;;;;10349790;28;89501;-48
2023/12/16 23:15:52;;;;;;;;;;;17.10;63.20;;;;;;10333255;28;88097;-51
2023/12/16 23:20:54;;;;;;;;;;;17.00;63.10;;;;;;10366120;28;89671;-47
2023/12/16 23:25:56;;;;;;;;;;;17.00;63.10;;;;;;10350869;28;90845;-50
2023/12/16 23:30:57;;;;;;;;;;;16.90;63.40;;;;;;10368339;28;90743;-49
2023/12/16 23:36:12;;;;;;;;;;;17.00;63.50;;;;;;10359786;28;88878;-47
2023/12/16 23:41:14;;;;;;;;;;;17.00;63.20;;;;;;10356507;28;88220;-57
2023/12/16 23:46:18;;;;;;;;;;;17.00;63.00;;;;;;10350752;28;89637;-47
2023/12/16 23:51:20;;;;;;;;;;;17.00;62.70;;;;;;10366186;28;89513;-50
2023/12/16 23:56:22;;;;;;;;;;;17.00;62.40;;;;;;10368795;28;88406;-51
